sensor_id;sensor_type;location;lat;lon;timestamp;P1;durP1;ratioP1;P2;durP2;ratioP2
51949;SDS011;37974;53.218;6.640;2024-01-27T00:00:07;816.10;;;751.15;;
51949;SDS011;37974;53.218;6.640;2024-01-27T00:02:33;846.92;;;777.63;;
51949;SDS011;37974;53.218;6.640;2024-01-27T00:04:59;773.50;;;712.70;;
51949;SDS011;37974;53.218;6.640;2024-01-27T00:07:25;769.10;;;708.90;;
51949;SDS011;37974;53.218;6.640;2024-01-27T00:09:52;858.50;;;788.38;;
51949;SDS011;37974;53.218;6.640;2024-01-27T00:12:18;870.70;;;798.92;;
51949;SDS011;37974;53.218;6.640;2024-01-27T00:14:43;874.22;;;799.95;;
51949;SDS011;37974;53.218;6.640;2024-01-27T00:17:09;806.88;;;741.70;;
51949;SDS011;37974;53.218;6.640;2024-01-27T00:19:35;853.40;;;783.47;;
51949;SDS011;37974;53.218;6.640;2024-01-27T00:22:01;978.47;;;889.15;;
51949;SDS011;37974;53.218;6.640;2024-01-27T00:24:27;931.65;;;851.60;;
51949;SDS011;37974;53.218;6.640;2024-01-27T00:26:53;851.50;;;782.17;;
51949;SDS011;37974;53.218;6.640;2024-01-27T00:29:19;826.53;;;759.83;;
51949;SDS011;37974;53.218;6.640;2024-01-27T00:31:45;851.88;;;783.10;;
51949;SDS011;37974;53.218;6.640;2024-01-27T00:34:11;789.45;;;727.67;;
51949;SDS011;37974;53.218;6.640;2024-01-27T00:36:36;859.47;;;789.72;;
51949;SDS011;37974;53.218;6.640;2024-01-27T00:39:02;772.80;;;712.72;;
51949;SDS011;37974;53.218;6.640;2024-01-27T00:41:29;857.53;;;787.90;;
51949;SDS011;37974;53.218;6.640;2024-01-27T00:43:54;823.05;;;757.45;;
51949;SDS011;37974;53.218;6.640;2024-01-27T00:46:20;785.58;;;724.13;;
51949;SDS011;37974;53.218;6.640;2024-01-27T00:48:46;793.35;;;731.42;;
51949;SDS011;37974;53.218;6.640;2024-01-27T00:51:12;928.72;;;849.70;;
51949;SDS011;37974;53.218;6.640;2024-01-27T00:53:38;878.88;;;805.42;;
51949;SDS011;37974;53.218;6.640;2024-01-27T00:56:05;982.22;;;892.55;;
51949;SDS011;37974;53.218;6.640;2024-01-27T00:58:30;868.60;;;797.22;;
51949;SDS011;37974;53.218;6.640;2024-01-27T01:00:57;807.97;;;743.30;;
51949;SDS011;37974;53.218;6.640;2024-01-27T01:03:23;823.38;;;757.95;;
51949;SDS011;37974;53.218;6.640;2024-01-27T01:05:49;847.83;;;778.22;;
51949;SDS011;37974;53.218;6.640;2024-01-27T01:08:15;826.72;;;760.15;;
51949;SDS011;37974;53.218;6.640;2024-01-27T01:10:41;898.13;;;823.53;;
51949;SDS011;37974;53.218;6.640;2024-01-27T01:13:07;855.58;;;787.30;;
51949;SDS011;37974;53.218;6.640;2024-01-27T01:15:32;810.22;;;745.38;;
51949;SDS011;37974;53.218;6.640;2024-01-27T01:17:58;800.55;;;736.10;;
51949;SDS011;37974;53.218;6.640;2024-01-27T01:20:25;882.10;;;809.60;;
51949;SDS011;37974;53.218;6.640;2024-01-27T01:22:52;905.67;;;829.20;;
51949;SDS011;37974;53.218;6.640;2024-01-27T01:25:18;816.53;;;751.38;;
51949;SDS011;37974;53.218;6.640;2024-01-27T01:27:44;833.65;;;765.88;;
51949;SDS011;37974;53.218;6.640;2024-01-27T01:30:11;859.03;;;788.83;;
51949;SDS011;37974;53.218;6.640;2024-01-27T01:32:37;825.83;;;758.53;;
51949;SDS011;37974;53.218;6.640;2024-01-27T01:35:02;837.95;;;771.30;;
51949;SDS011;37974;53.218;6.640;2024-01-27T01:37:29;783.75;;;722.63;;
51949;SDS011;37974;53.218;6.640;2024-01-27T01:39:55;808.05;;;744.55;;
51949;SDS011;37974;53.218;6.640;2024-01-27T01:42:21;821.63;;;755.05;;
51949;SDS011;37974;53.218;6.640;2024-01-27T01:44:49;876.80;;;803.50;;
51949;SDS011;37974;53.218;6.640;2024-01-27T01:47:16;878.25;;;804.50;;
51949;SDS011;37974;53.218;6.640;2024-01-27T01:49:42;806.40;;;742.33;;
51949;SDS011;37974;53.218;6.640;2024-01-27T01:52:08;967.67;;;876.20;;
51949;SDS011;37974;53.218;6.640;2024-01-27T01:54:34;803.10;;;736.97;;
51949;SDS011;37974;53.218;6.640;2024-01-27T01:56:59;796.20;;;732.45;;
51949;SDS011;37974;53.218;6.640;2024-01-27T01:59:25;820.60;;;755.75;;
51949;SDS011;37974;53.218;6.640;2024-01-27T02:01:51;784.80;;;724.15;;
51949;SDS011;37974;53.218;6.640;2024-01-27T02:04:17;774.55;;;713.60;;
51949;SDS011;37974;53.218;6.640;2024-01-27T02:06:42;816.97;;;752.50;;
51949;SDS011;37974;53.218;6.640;2024-01-27T02:09:08;820.47;;;755.00;;
51949;SDS011;37974;53.218;6.640;2024-01-27T02:11:35;931.33;;;849.95;;
51949;SDS011;37974;53.218;6.640;2024-01-27T02:14:00;864.35;;;793.10;;
51949;SDS011;37974;53.218;6.640;2024-01-27T02:16:26;850.67;;;781.53;;
51949;SDS011;37974;53.218;6.640;2024-01-27T02:18:52;770.72;;;711.05;;
51949;SDS011;37974;53.218;6.640;2024-01-27T02:21:17;816.83;;;751.97;;
51949;SDS011;37974;53.218;6.640;2024-01-27T02:23:43;840.97;;;773.00;;
51949;SDS011;37974;53.218;6.640;2024-01-27T02:26:09;799.22;;;736.13;;
51949;SDS011;37974;53.218;6.640;2024-01-27T02:28:34;840.42;;;772.38;;
51949;SDS011;37974;53.218;6.640;2024-01-27T02:31:00;912.05;;;834.88;;
51949;SDS011;37974;53.218;6.640;2024-01-27T02:33:26;850.92;;;782.38;;
51949;SDS011;37974;53.218;6.640;2024-01-27T02:35:52;845.08;;;776.85;;
51949;SDS011;37974;53.218;6.640;2024-01-27T02:38:17;814.17;;;749.35;;
51949;SDS011;37974;53.218;6.640;2024-01-27T02:40:43;882.67;;;811.40;;
51949;SDS011;37974;53.218;6.640;2024-01-27T02:43:09;802.55;;;739.10;;
51949;SDS011;37974;53.218;6.640;2024-01-27T02:45:34;799.00;;;735.55;;
51949;SDS011;37974;53.218;6.640;2024-01-27T02:48:00;783.45;;;722.10;;
51949;SDS011;37974;53.218;6.640;2024-01-27T02:50:26;859.88;;;789.80;;
51949;SDS011;37974;53.218;6.640;2024-01-27T02:52:52;823.10;;;756.25;;
51949;SDS011;37974;53.218;6.640;2024-01-27T02:55:18;804.40;;;742.03;;
51949;SDS011;37974;53.218;6.640;2024-01-27T02:57:43;856.30;;;787.22;;
51949;SDS011;37974;53.218;6.640;2024-01-27T03:00:09;848.05;;;780.15;;
51949;SDS011;37974;53.218;6.640;2024-01-27T03:02:35;823.72;;;758.13;;
51949;SDS011;37974;53.218;6.640;2024-01-27T03:05:01;957.97;;;874.40;;
51949;SDS011;37974;53.218;6.640;2024-01-27T03:07:27;844.70;;;777.25;;
51949;SDS011;37974;53.218;6.640;2024-01-27T03:09:52;830.80;;;764.50;;
51949;SDS011;37974;53.218;6.640;2024-01-27T03:12:18;840.35;;;771.85;;
51949;SDS011;37974;53.218;6.640;2024-01-27T03:14:44;851.47;;;782.08;;
51949;SDS011;37974;53.218;6.640;2024-01-27T03:17:11;868.45;;;796.17;;
51949;SDS011;37974;53.218;6.640;2024-01-27T03:19:37;853.47;;;783.72;;
51949;SDS011;37974;53.218;6.640;2024-01-27T03:22:02;838.83;;;772.80;;
51949;SDS011;37974;53.218;6.640;2024-01-27T03:24:28;892.13;;;817.35;;
51949;SDS011;37974;53.218;6.640;2024-01-27T03:26:54;865.17;;;794.35;;
51949;SDS011;37974;53.218;6.640;2024-01-27T03:29:19;812.10;;;747.63;;
51949;SDS011;37974;53.218;6.640;2024-01-27T03:31:45;865.53;;;794.55;;
51949;SDS011;37974;53.218;6.640;2024-01-27T03:34:11;806.50;;;743.25;;
51949;SDS011;37974;53.218;6.640;2024-01-27T03:36:36;817.95;;;754.40;;
51949;SDS011;37974;53.218;6.640;2024-01-27T03:39:02;812.45;;;748.05;;
51949;SDS011;37974;53.218;6.640;2024-01-27T03:41:28;773.40;;;713.08;;
51949;SDS011;37974;53.218;6.640;2024-01-27T03:43:54;822.05;;;757.92;;
51949;SDS011;37974;53.218;6.640;2024-01-27T03:46:20;847.53;;;779.88;;
51949;SDS011;37974;53.218;6.640;2024-01-27T03:48:46;867.40;;;796.75;;
51949;SDS011;37974;53.218;6.640;2024-01-27T03:51:11;883.05;;;810.22;;
51949;SDS011;37974;53.218;6.640;2024-01-27T03:53:37;909.05;;;833.00;;
51949;SDS011;37974;53.218;6.640;2024-01-27T03:56:03;808.65;;;745.45;;
51949;SDS011;37974;53.218;6.640;2024-01-27T03:58:29;837.85;;;770.55;;
51949;SDS011;37974;53.218;6.640;2024-01-27T04:00:56;806.88;;;744.20;;
51949;SDS011;37974;53.218;6.640;2024-01-27T04:03:22;811.05;;;747.67;;
51949;SDS011;37974;53.218;6.640;2024-01-27T04:05:48;913.53;;;835.40;;
51949;SDS011;37974;53.218;6.640;2024-01-27T04:08:14;809.90;;;746.67;;
51949;SDS011;37974;53.218;6.640;2024-01-27T04:10:40;814.72;;;750.67;;
51949;SDS011;37974;53.218;6.640;2024-01-27T04:13:05;858.47;;;789.30;;
51949;SDS011;37974;53.218;6.640;2024-01-27T04:15:34;868.55;;;797.67;;
51949;SDS011;37974;53.218;6.640;2024-01-27T04:18:06;933.08;;;852.88;;
51949;SDS011;37974;53.218;6.640;2024-01-27T04:20:33;832.38;;;765.85;;
51949;SDS011;37974;53.218;6.640;2024-01-27T04:22:59;803.92;;;740.95;;
51949;SDS011;37974;53.218;6.640;2024-01-27T04:25:25;832.42;;;766.17;;
51949;SDS011;37974;53.218;6.640;2024-01-27T04:27:51;842.97;;;774.42;;
51949;SDS011;37974;53.218;6.640;2024-01-27T04:30:18;885.15;;;813.25;;
51949;SDS011;37974;53.218;6.640;2024-01-27T04:32:44;914.00;;;836.83;;
51949;SDS011;37974;53.218;6.640;2024-01-27T04:35:09;854.67;;;785.53;;
51949;SDS011;37974;53.218;6.640;2024-01-27T04:37:36;833.28;;;766.92;;
51949;SDS011;37974;53.218;6.640;2024-01-27T04:40:03;843.75;;;776.00;;
51949;SDS011;37974;53.218;6.640;2024-01-27T04:42:32;812.50;;;748.47;;
51949;SDS011;37974;53.218;6.640;2024-01-27T04:44:59;855.28;;;785.28;;
51949;SDS011;37974;53.218;6.640;2024-01-27T04:47:25;802.63;;;739.33;;
51949;SDS011;37974;53.218;6.640;2024-01-27T04:49:51;780.22;;;719.00;;
51949;SDS011;37974;53.218;6.640;2024-01-27T04:52:16;867.80;;;797.60;;
51949;SDS011;37974;53.218;6.640;2024-01-27T04:54:42;829.50;;;762.65;;
51949;SDS011;37974;53.218;6.640;2024-01-27T04:57:08;809.75;;;745.65;;
51949;SDS011;37974;53.218;6.640;2024-01-27T04:59:35;882.38;;;809.85;;
51949;SDS011;37974;53.218;6.640;2024-01-27T05:02:00;892.83;;;818.72;;
51949;SDS011;37974;53.218;6.640;2024-01-27T05:04:26;883.55;;;810.42;;
51949;SDS011;37974;53.218;6.640;2024-01-27T05:06:52;860.08;;;790.80;;
51949;SDS011;37974;53.218;6.640;2024-01-27T05:09:18;829.05;;;763.08;;
51949;SDS011;37974;53.218;6.640;2024-01-27T05:11:43;786.15;;;725.00;;
51949;SDS011;37974;53.218;6.640;2024-01-27T05:14:10;855.88;;;785.85;;
51949;SDS011;37974;53.218;6.640;2024-01-27T05:16:36;830.13;;;763.33;;
51949;SDS011;37974;53.218;6.640;2024-01-27T05:19:02;866.78;;;796.03;;
51949;SDS011;37974;53.218;6.640;2024-01-27T05:21:28;811.75;;;747.45;;
51949;SDS011;37974;53.218;6.640;2024-01-27T05:23:54;807.13;;;743.65;;
51949;SDS011;37974;53.218;6.640;2024-01-27T05:26:20;871.90;;;801.35;;
51949;SDS011;37974;53.218;6.640;2024-01-27T05:28:46;877.63;;;805.35;;
51949;SDS011;37974;53.218;6.640;2024-01-27T05:31:12;883.50;;;810.58;;
51949;SDS011;37974;53.218;6.640;2024-01-27T05:33:38;933.22;;;852.85;;
51949;SDS011;37974;53.218;6.640;2024-01-27T05:36:04;865.65;;;795.60;;
51949;SDS011;37974;53.218;6.640;2024-01-27T05:38:31;807.53;;;742.72;;
51949;SDS011;37974;53.218;6.640;2024-01-27T05:40:58;848.03;;;780.17;;
51949;SDS011;37974;53.218;6.640;2024-01-27T05:43:30;830.70;;;765.28;;
51949;SDS011;37974;53.218;6.640;2024-01-27T05:45:56;821.72;;;757.47;;
51949;SDS011;37974;53.218;6.640;2024-01-27T05:48:21;794.45;;;732.67;;
51949;SDS011;37974;53.218;6.640;2024-01-27T05:50:57;815.55;;;750.97;;
51949;SDS011;37974;53.218;6.640;2024-01-27T05:53:23;813.33;;;749.22;;
51949;SDS011;37974;53.218;6.640;2024-01-27T05:55:50;891.47;;;818.72;;
51949;SDS011;37974;53.218;6.640;2024-01-27T05:58:16;837.40;;;771.20;;
51949;SDS011;37974;53.218;6.640;2024-01-27T06:00:43;833.28;;;767.63;;
51949;SDS011;37974;53.218;6.640;2024-01-27T06:03:09;845.72;;;777.90;;
51949;SDS011;37974;53.218;6.640;2024-01-27T06:05:35;842.70;;;775.53;;
51949;SDS011;37974;53.218;6.640;2024-01-27T06:08:02;872.17;;;800.95;;
51949;SDS011;37974;53.218;6.640;2024-01-27T06:10:27;854.40;;;785.25;;
51949;SDS011;37974;53.218;6.640;2024-01-27T06:12:53;797.35;;;735.63;;
51949;SDS011;37974;53.218;6.640;2024-01-27T06:15:19;806.67;;;744.33;;
51949;SDS011;37974;53.218;6.640;2024-01-27T06:17:44;894.88;;;821.08;;
51949;SDS011;37974;53.218;6.640;2024-01-27T06:20:10;891.72;;;819.80;;
51949;SDS011;37974;53.218;6.640;2024-01-27T06:22:36;828.38;;;763.47;;
51949;SDS011;37974;53.218;6.640;2024-01-27T06:25:02;890.33;;;816.65;;
51949;SDS011;37974;53.218;6.640;2024-01-27T06:27:28;808.65;;;745.08;;
51949;SDS011;37974;53.218;6.640;2024-01-27T06:29:53;800.25;;;736.70;;
51949;SDS011;37974;53.218;6.640;2024-01-27T06:32:19;886.92;;;814.58;;
51949;SDS011;37974;53.218;6.640;2024-01-27T06:34:45;963.28;;;878.17;;
51949;SDS011;37974;53.218;6.640;2024-01-27T06:37:10;1023.08;;;924.97;;
51949;SDS011;37974;53.218;6.640;2024-01-27T06:39:36;946.30;;;861.65;;
51949;SDS011;37974;53.218;6.640;2024-01-27T06:42:02;959.15;;;874.90;;
51949;SDS011;37974;53.218;6.640;2024-01-27T06:44:28;951.53;;;869.63;;
51949;SDS011;37974;53.218;6.640;2024-01-27T06:46:54;1054.55;;;952.40;;
51949;SDS011;37974;53.218;6.640;2024-01-27T06:49:19;895.95;;;822.17;;
51949;SDS011;37974;53.218;6.640;2024-01-27T06:51:45;858.70;;;788.78;;
51949;SDS011;37974;53.218;6.640;2024-01-27T06:54:11;873.45;;;801.95;;
51949;SDS011;37974;53.218;6.640;2024-01-27T06:56:36;985.17;;;896.03;;
51949;SDS011;37974;53.218;6.640;2024-01-27T06:59:03;961.35;;;876.97;;
51949;SDS011;37974;53.218;6.640;2024-01-27T07:01:29;888.05;;;815.35;;
51949;SDS011;37974;53.218;6.640;2024-01-27T07:03:54;1030.07;;;934.00;;
51949;SDS011;37974;53.218;6.640;2024-01-27T07:06:20;966.83;;;882.55;;
51949;SDS011;37974;53.218;6.640;2024-01-27T07:08:46;885.40;;;813.15;;
51949;SDS011;37974;53.218;6.640;2024-01-27T07:11:12;899.38;;;824.25;;
51949;SDS011;37974;53.218;6.640;2024-01-27T07:13:37;826.72;;;761.67;;
51949;SDS011;37974;53.218;6.640;2024-01-27T07:16:04;805.65;;;741.80;;
51949;SDS011;37974;53.218;6.640;2024-01-27T07:18:30;812.05;;;747.30;;
51949;SDS011;37974;53.218;6.640;2024-01-27T07:20:56;881.78;;;809.17;;
51949;SDS011;37974;53.218;6.640;2024-01-27T07:23:24;818.08;;;754.72;;
51949;SDS011;37974;53.218;6.640;2024-01-27T07:25:50;837.95;;;771.97;;
51949;SDS011;37974;53.218;6.640;2024-01-27T07:28:15;790.15;;;729.05;;
51949;SDS011;37974;53.218;6.640;2024-01-27T07:30:43;788.35;;;726.67;;
51949;SDS011;37974;53.218;6.640;2024-01-27T07:33:09;802.17;;;739.08;;
51949;SDS011;37974;53.218;6.640;2024-01-27T07:35:35;807.38;;;744.42;;
51949;SDS011;37974;53.218;6.640;2024-01-27T07:38:01;791.72;;;729.75;;
51949;SDS011;37974;53.218;6.640;2024-01-27T07:40:27;809.75;;;746.50;;
51949;SDS011;37974;53.218;6.640;2024-01-27T07:42:52;827.38;;;761.92;;
51949;SDS011;37974;53.218;6.640;2024-01-27T07:45:19;875.47;;;803.92;;
51949;SDS011;37974;53.218;6.640;2024-01-27T07:47:44;846.00;;;779.20;;
51949;SDS011;37974;53.218;6.640;2024-01-27T07:50:10;863.63;;;794.20;;
51949;SDS011;37974;53.218;6.640;2024-01-27T07:52:36;841.17;;;773.42;;
51949;SDS011;37974;53.218;6.640;2024-01-27T07:55:02;787.92;;;726.47;;
51949;SDS011;37974;53.218;6.640;2024-01-27T07:57:28;795.55;;;732.67;;
51949;SDS011;37974;53.218;6.640;2024-01-27T07:59:53;922.85;;;844.63;;
51949;SDS011;37974;53.218;6.640;2024-01-27T08:02:19;860.38;;;789.58;;
51949;SDS011;37974;53.218;6.640;2024-01-27T08:04:45;834.25;;;766.67;;
51949;SDS011;37974;53.218;6.640;2024-01-27T08:07:10;837.22;;;770.25;;
51949;SDS011;37974;53.218;6.640;2024-01-27T08:09:36;854.53;;;784.83;;
51949;SDS011;37974;53.218;6.640;2024-01-27T08:12:03;863.58;;;793.40;;
51949;SDS011;37974;53.218;6.640;2024-01-27T08:14:29;847.28;;;778.50;;
51949;SDS011;37974;53.218;6.640;2024-01-27T08:16:56;832.78;;;764.75;;
51949;SDS011;37974;53.218;6.640;2024-01-27T08:19:23;828.33;;;763.15;;
51949;SDS011;37974;53.218;6.640;2024-01-27T08:21:49;877.42;;;804.67;;
51949;SDS011;37974;53.218;6.640;2024-01-27T08:24:14;924.13;;;844.55;;
51949;SDS011;37974;53.218;6.640;2024-01-27T08:26:40;819.92;;;754.97;;
51949;SDS011;37974;53.218;6.640;2024-01-27T08:29:07;823.92;;;758.05;;
51949;SDS011;37974;53.218;6.640;2024-01-27T08:31:34;865.92;;;795.55;;
51949;SDS011;37974;53.218;6.640;2024-01-27T08:34:00;831.83;;;766.20;;
51949;SDS011;37974;53.218;6.640;2024-01-27T08:36:26;808.38;;;743.35;;
51949;SDS011;37974;53.218;6.640;2024-01-27T08:38:51;852.75;;;784.97;;
51949;SDS011;37974;53.218;6.640;2024-01-27T08:41:17;834.72;;;768.30;;
51949;SDS011;37974;53.218;6.640;2024-01-27T08:43:43;827.13;;;760.00;;
51949;SDS011;37974;53.218;6.640;2024-01-27T08:46:09;853.25;;;784.58;;
51949;SDS011;37974;53.218;6.640;2024-01-27T08:48:37;823.17;;;757.83;;
51949;SDS011;37974;53.218;6.640;2024-01-27T08:51:04;864.35;;;795.35;;
51949;SDS011;37974;53.218;6.640;2024-01-27T08:53:29;834.72;;;768.08;;
51949;SDS011;37974;53.218;6.640;2024-01-27T08:55:55;843.88;;;776.65;;
51949;SDS011;37974;53.218;6.640;2024-01-27T08:58:21;786.83;;;725.63;;
51949;SDS011;37974;53.218;6.640;2024-01-27T09:00:46;776.60;;;715.60;;
51949;SDS011;37974;53.218;6.640;2024-01-27T09:03:12;789.05;;;727.20;;
51949;SDS011;37974;53.218;6.640;2024-01-27T09:05:39;776.60;;;715.67;;
51949;SDS011;37974;53.218;6.640;2024-01-27T09:08:08;799.90;;;738.22;;
51949;SDS011;37974;53.218;6.640;2024-01-27T09:10:34;829.38;;;762.40;;
51949;SDS011;37974;53.218;6.640;2024-01-27T09:13:00;807.38;;;744.25;;
51949;SDS011;37974;53.218;6.640;2024-01-27T09:15:25;832.70;;;765.08;;
51949;SDS011;37974;53.218;6.640;2024-01-27T09:17:51;927.75;;;844.40;;
51949;SDS011;37974;53.218;6.640;2024-01-27T09:20:17;796.75;;;734.65;;
51949;SDS011;37974;53.218;6.640;2024-01-27T09:22:42;822.53;;;755.20;;
51949;SDS011;37974;53.218;6.640;2024-01-27T09:25:09;807.65;;;745.22;;
51949;SDS011;37974;53.218;6.640;2024-01-27T09:27:35;800.35;;;736.85;;
51949;SDS011;37974;53.218;6.640;2024-01-27T09:30:02;812.50;;;748.22;;
51949;SDS011;37974;53.218;6.640;2024-01-27T09:32:28;782.58;;;720.72;;
51949;SDS011;37974;53.218;6.640;2024-01-27T09:34:54;809.88;;;745.65;;
51949;SDS011;37974;53.218;6.640;2024-01-27T09:37:19;810.03;;;746.50;;
51949;SDS011;37974;53.218;6.640;2024-01-27T09:39:45;802.15;;;739.05;;
51949;SDS011;37974;53.218;6.640;2024-01-27T09:42:12;824.20;;;757.85;;
51949;SDS011;37974;53.218;6.640;2024-01-27T09:44:40;767.40;;;709.00;;
51949;SDS011;37974;53.218;6.640;2024-01-27T09:47:09;790.33;;;727.50;;
51949;SDS011;37974;53.218;6.640;2024-01-27T09:49:37;838.97;;;762.67;;
51949;SDS011;37974;53.218;6.640;2024-01-27T09:52:04;813.35;;;747.35;;
51949;SDS011;37974;53.218;6.640;2024-01-27T09:54:31;828.90;;;761.38;;
51949;SDS011;37974;53.218;6.640;2024-01-27T09:56:56;828.93;;;762.00;;
51949;SDS011;37974;53.218;6.640;2024-01-27T09:59:23;773.58;;;712.78;;
51949;SDS011;37974;53.218;6.640;2024-01-27T10:01:50;777.88;;;712.38;;
51949;SDS011;37974;53.218;6.640;2024-01-27T10:04:18;824.03;;;747.35;;
51949;SDS011;37974;53.218;6.640;2024-01-27T10:06:46;766.45;;;697.47;;
51949;SDS011;37974;53.218;6.640;2024-01-27T10:09:13;760.10;;;696.47;;
51949;SDS011;37974;53.218;6.640;2024-01-27T10:11:39;818.08;;;746.38;;
51949;SDS011;37974;53.218;6.640;2024-01-27T10:14:11;822.15;;;746.53;;
51949;SDS011;37974;53.218;6.640;2024-01-27T10:16:41;1163.28;;;934.35;;
51949;SDS011;37974;53.218;6.640;2024-01-27T10:19:11;770.40;;;702.67;;
51949;SDS011;37974;53.218;6.640;2024-01-27T10:21:41;943.95;;;848.03;;
51949;SDS011;37974;53.218;6.640;2024-01-27T10:24:06;936.78;;;838.75;;
51949;SDS011;37974;53.218;6.640;2024-01-27T10:26:33;895.58;;;806.67;;
51949;SDS011;37974;53.218;6.640;2024-01-27T10:29:00;841.00;;;769.15;;
51949;SDS011;37974;53.218;6.640;2024-01-27T10:31:27;972.40;;;873.22;;
51949;SDS011;37974;53.218;6.640;2024-01-27T10:33:54;856.17;;;781.88;;
51949;SDS011;37974;53.218;6.640;2024-01-27T10:36:21;860.08;;;784.45;;
51949;SDS011;37974;53.218;6.640;2024-01-27T10:38:48;912.30;;;823.45;;
51949;SDS011;37974;53.218;6.640;2024-01-27T10:41:19;726.90;;;670.92;;
51949;SDS011;37974;53.218;6.640;2024-01-27T10:43:49;759.85;;;701.25;;
51949;SDS011;37974;53.218;6.640;2024-01-27T10:46:22;758.92;;;699.60;;
51949;SDS011;37974;53.218;6.640;2024-01-27T10:48:51;750.13;;;690.47;;
51949;SDS011;37974;53.218;6.640;2024-01-27T10:51:18;690.60;;;638.17;;
51949;SDS011;37974;53.218;6.640;2024-01-27T10:53:49;706.08;;;651.63;;
51949;SDS011;37974;53.218;6.640;2024-01-27T10:56:18;723.20;;;667.63;;
51949;SDS011;37974;53.218;6.640;2024-01-27T10:58:44;715.00;;;660.67;;
51949;SDS011;37974;53.218;6.640;2024-01-27T11:01:13;678.15;;;626.15;;
51949;SDS011;37974;53.218;6.640;2024-01-27T11:03:39;739.72;;;682.38;;
51949;SDS011;37974;53.218;6.640;2024-01-27T11:06:05;709.40;;;655.42;;
51949;SDS011;37974;53.218;6.640;2024-01-27T11:08:33;651.15;;;601.67;;
51949;SDS011;37974;53.218;6.640;2024-01-27T11:10:59;709.15;;;655.15;;
51949;SDS011;37974;53.218;6.640;2024-01-27T11:13:27;669.25;;;619.25;;
51949;SDS011;37974;53.218;6.640;2024-01-27T11:15:54;675.03;;;624.33;;
51949;SDS011;37974;53.218;6.640;2024-01-27T11:18:20;672.33;;;621.20;;
51949;SDS011;37974;53.218;6.640;2024-01-27T11:20:47;656.88;;;607.28;;
51949;SDS011;37974;53.218;6.640;2024-01-27T11:23:13;786.83;;;723.85;;
51949;SDS011;37974;53.218;6.640;2024-01-27T11:25:40;978.80;;;886.58;;
51949;SDS011;37974;53.218;6.640;2024-01-27T11:28:11;835.25;;;767.58;;
51949;SDS011;37974;53.218;6.640;2024-01-27T11:30:40;768.45;;;706.97;;
51949;SDS011;37974;53.218;6.640;2024-01-27T11:33:13;978.42;;;887.70;;
51949;SDS011;37974;53.218;6.640;2024-01-27T11:35:39;806.08;;;741.33;;
51949;SDS011;37974;53.218;6.640;2024-01-27T11:38:05;1069.57;;;956.95;;
51949;SDS011;37974;53.218;6.640;2024-01-27T11:40:30;710.55;;;656.63;;
51949;SDS011;37974;53.218;6.640;2024-01-27T11:42:57;1000.08;;;900.38;;
51949;SDS011;37974;53.218;6.640;2024-01-27T11:45:24;928.13;;;846.90;;
51949;SDS011;37974;53.218;6.640;2024-01-27T11:47:50;914.92;;;834.08;;
51949;SDS011;37974;53.218;6.640;2024-01-27T11:50:17;964.60;;;872.92;;
51949;SDS011;37974;53.218;6.640;2024-01-27T11:52:43;778.92;;;718.72;;
51949;SDS011;37974;53.218;6.640;2024-01-27T11:55:09;720.08;;;664.92;;
51949;SDS011;37974;53.218;6.640;2024-01-27T11:57:35;786.53;;;724.90;;
51949;SDS011;37974;53.218;6.640;2024-01-27T12:00:01;907.33;;;829.42;;
51949;SDS011;37974;53.218;6.640;2024-01-27T12:02:27;914.35;;;835.25;;
51949;SDS011;37974;53.218;6.640;2024-01-27T12:04:52;771.78;;;711.08;;
51949;SDS011;37974;53.218;6.640;2024-01-27T12:07:19;826.95;;;760.90;;
51949;SDS011;37974;53.218;6.640;2024-01-27T12:09:45;936.40;;;853.35;;
51949;SDS011;37974;53.218;6.640;2024-01-27T12:12:12;688.80;;;637.33;;
51949;SDS011;37974;53.218;6.640;2024-01-27T12:14:40;656.13;;;606.97;;
51949;SDS011;37974;53.218;6.640;2024-01-27T12:17:09;685.08;;;633.22;;
51949;SDS011;37974;53.218;6.640;2024-01-27T12:19:36;762.35;;;703.13;;
51949;SDS011;37974;53.218;6.640;2024-01-27T12:22:02;638.50;;;590.35;;
51949;SDS011;37974;53.218;6.640;2024-01-27T12:24:28;656.60;;;607.80;;
51949;SDS011;37974;53.218;6.640;2024-01-27T12:26:55;706.80;;;653.55;;
51949;SDS011;37974;53.218;6.640;2024-01-27T12:29:24;656.08;;;607.33;;
51949;SDS011;37974;53.218;6.640;2024-01-27T12:31:49;756.53;;;695.88;;
51949;SDS011;37974;53.218;6.640;2024-01-27T12:34:17;627.38;;;580.78;;
51949;SDS011;37974;53.218;6.640;2024-01-27T12:36:44;664.97;;;615.50;;
51949;SDS011;37974;53.218;6.640;2024-01-27T12:39:10;673.03;;;621.58;;
51949;SDS011;37974;53.218;6.640;2024-01-27T12:41:36;637.40;;;589.65;;
51949;SDS011;37974;53.218;6.640;2024-01-27T12:44:01;601.63;;;557.40;;
51949;SDS011;37974;53.218;6.640;2024-01-27T12:46:28;639.63;;;592.05;;
51949;SDS011;37974;53.218;6.640;2024-01-27T12:48:53;622.10;;;576.25;;
51949;SDS011;37974;53.218;6.640;2024-01-27T12:51:19;672.78;;;621.42;;
51949;SDS011;37974;53.218;6.640;2024-01-27T12:53:46;607.85;;;562.25;;
51949;SDS011;37974;53.218;6.640;2024-01-27T12:56:12;661.15;;;611.10;;
51949;SDS011;37974;53.218;6.640;2024-01-27T12:58:40;622.13;;;575.50;;
51949;SDS011;37974;53.218;6.640;2024-01-27T13:01:06;620.22;;;574.42;;
51949;SDS011;37974;53.218;6.640;2024-01-27T13:03:33;631.75;;;584.75;;
51949;SDS011;37974;53.218;6.640;2024-01-27T13:05:59;642.95;;;594.90;;
51949;SDS011;37974;53.218;6.640;2024-01-27T13:08:26;630.53;;;583.03;;
51949;SDS011;37974;53.218;6.640;2024-01-27T13:10:51;704.78;;;650.10;;
51949;SDS011;37974;53.218;6.640;2024-01-27T13:13:17;634.72;;;586.75;;
51949;SDS011;37974;53.218;6.640;2024-01-27T13:15:43;1999.90;;;999.90;;
51949;SDS011;37974;53.218;6.640;2024-01-27T13:18:09;1090.30;;;972.30;;
51949;SDS011;37974;53.218;6.640;2024-01-27T13:20:35;849.45;;;778.85;;
51949;SDS011;37974;53.218;6.640;2024-01-27T13:23:02;817.88;;;751.97;;
51949;SDS011;37974;53.218;6.640;2024-01-27T13:25:27;1174.00;;;999.90;;
51949;SDS011;37974;53.218;6.640;2024-01-27T13:27:53;1867.90;;;999.90;;
51949;SDS011;37974;53.218;6.640;2024-01-27T13:30:19;1620.35;;;999.90;;
51949;SDS011;37974;53.218;6.640;2024-01-27T13:32:45;1116.40;;;991.85;;
51949;SDS011;37974;53.218;6.640;2024-01-27T13:35:11;1055.68;;;941.47;;
51949;SDS011;37974;53.218;6.640;2024-01-27T13:37:37;1201.03;;;999.90;;
51949;SDS011;37974;53.218;6.640;2024-01-27T13:40:04;1399.03;;;999.90;;
51949;SDS011;37974;53.218;6.640;2024-01-27T13:42:32;1142.40;;;999.90;;
51949;SDS011;37974;53.218;6.640;2024-01-27T13:44:58;1372.85;;;999.90;;
51949;SDS011;37974;53.218;6.640;2024-01-27T13:47:24;1591.57;;;999.90;;
51949;SDS011;37974;53.218;6.640;2024-01-27T13:49:50;1999.90;;;999.90;;